Time;durP1;ratioP1;P1;durP2;ratioP2;P2;SDS_P1;SDS_P2;PMS_P1;PMS_P2;Temp;Humidity;BMP_temperature;BMP_pressure;BME280_temperature;BME280_humidity;BME280_pressure;Samples;Min_cycle;Max_cycle;Signal;HPM_P1;HPM_P2
2021/10/31 00:02:14;;;;;;;0.40;0.20;;;12.20;99.90;;;;;;5091464;28;20386;-68
2021/10/31 00:04:40;;;;;;;0.40;0.30;;;12.20;99.90;;;;;;5091026;28;20394;-69
2021/10/31 00:07:05;;;;;;;0.40;0.30;;;12.10;99.90;;;;;;5091659;28;20374;-69
2021/10/31 00:09:31;;;;;;;0.40;0.20;;;12.10;99.90;;;;;;5090876;28;20374;-69
2021/10/31 00:11:57;;;;;;;0.40;0.20;;;12.20;99.90;;;;;;5091207;28;20426;-69
2021/10/31 00:14:23;;;;;;;0.40;0.20;;;12.20;99.90;;;;;;5091458;28;20390;-69
2021/10/31 00:16:49;;;;;;;0.40;0.30;;;12.30;99.90;;;;;;5090804;28;20396;-69
2021/10/31 00:19:15;;;;;;;0.40;0.20;;;12.20;99.90;;;;;;5091192;28;20390;-69
2021/10/31 00:21:41;;;;;;;0.40;0.20;;;12.20;99.90;;;;;;5090465;28;20409;-69
2021/10/31 00:24:06;;;;;;;0.40;0.20;;;12.30;99.90;;;;;;5091240;28;20381;-70
2021/10/31 00:26:33;;;;;;;0.40;0.20;;;12.40;99.90;;;;;;5090705;28;20814;-70
2021/10/31 00:28:59;;;;;;;0.40;0.20;;;12.30;99.90;;;;;;5090896;28;20854;-70
2021/10/31 00:31:25;;;;;;;0.40;0.30;;;12.30;99.90;;;;;;5091204;28;20413;-70
2021/10/31 00:33:51;;;;;;;0.40;0.30;;;12.30;99.90;;;;;;5090822;28;20386;-69
2021/10/31 00:36:17;;;;;;;0.50;0.50;;;12.40;99.90;;;;;;5090754;28;20398;-69
2021/10/31 00:38:42;;;;;;;0.43;0.32;;;12.40;99.90;;;;;;5090569;28;20374;-70
2021/10/31 00:41:08;;;;;;;0.40;0.20;;;12.40;99.90;;;;;;5091433;28;20382;-70
2021/10/31 00:43:34;;;;;;;0.40;0.30;;;12.40;99.90;;;;;;5090487;28;20374;-70
2021/10/31 00:46:00;;;;;;;0.40;0.20;;;12.30;99.90;;;;;;5091140;28;20374;-70
2021/10/31 00:48:26;;;;;;;0.40;0.20;;;12.40;99.90;;;;;;5091617;28;20374;-69
2021/10/31 00:50:52;;;;;;;0.40;0.30;;;12.40;99.90;;;;;;5094904;28;20497;-69
2021/10/31 00:53:19;;;;;;;0.40;0.20;;;12.40;99.90;;;;;;5093373;28;20484;-70
2021/10/31 00:55:44;;;;;;;1.00;0.90;;;12.40;99.90;;;;;;5094243;28;20382;-70
2021/10/31 00:58:12;;;;;;;0.40;0.20;;;12.40;99.90;;;;;;5095250;28;20378;-70
2021/10/31 01:00:37;;;;;;;0.40;0.28;;;12.50;99.90;;;;;;5094156;28;20390;-70
2021/10/31 01:03:03;;;;;;;0.40;0.20;;;12.30;99.90;;;;;;5094914;28;20489;-69
2021/10/31 01:05:46;;;;;;;0.40;0.20;;;12.30;99.90;;;;;;5094080;28;20396;-71
2021/10/31 01:08:32;;;;;;;0.40;0.20;;;12.30;99.90;;;;;;5094745;28;20685;-70
2021/10/31 01:11:20;;;;;;;0.40;0.20;;;12.30;99.90;;;;;;5094601;28;20428;-70
2021/10/31 01:14:21;;;;;;;0.40;0.20;;;12.40;99.90;;;;;;5094427;28;20400;-69
2021/10/31 01:17:57;;;;;;;0.40;0.20;;;12.40;99.90;;;;;;5094219;28;20415;-69
2021/10/31 01:20:50;;;;;;;0.40;0.23;;;12.40;99.90;;;;;;5020954;28;20764;-68
2021/10/31 01:23:46;;;;;;;0.40;0.20;;;12.50;99.90;;;;;;5084422;28;20831;-68
2021/10/31 01:26:18;;;;;;;0.40;0.30;;;12.50;99.90;;;;;;5094142;28;20384;-69
2021/10/31 01:29:32;;;;;;;0.40;0.30;;;12.50;99.90;;;;;;5094042;28;20435;-68
2021/10/31 01:32:07;;;;;;;0.40;0.20;;;12.50;99.90;;;;;;5069977;28;20429;-68
2021/10/31 01:34:55;;;;;;;0.40;0.20;;;12.60;99.90;;;;;;5093752;28;20398;-69
2021/10/31 01:37:24;;;;;;;0.40;0.30;;;12.60;99.90;;;;;;5094779;28;20452;-69
2021/10/31 01:40:07;;;;;;;0.40;0.30;;;12.60;99.90;;;;;;5093568;28;20382;-69
2021/10/31 01:42:45;;;;;;;0.40;0.20;;;12.60;99.90;;;;;;5093327;28;20867;-69
2021/10/31 01:45:17;;;;;;;1.00;0.90;;;12.50;99.90;;;;;;5094001;28;20511;-68
2021/10/31 01:48:09;;;;;;;0.40;0.30;;;12.60;99.90;;;;;;5093275;28;20382;-69
2021/10/31 01:50:47;;;;;;;0.40;0.20;;;12.50;99.90;;;;;;5093432;28;20878;-70
2021/10/31 01:53:35;;;;;;;0.40;0.20;;;12.50;99.90;;;;;;5092436;28;20909;-69
2021/10/31 01:56:10;;;;;;;0.40;0.20;;;12.60;99.90;;;;;;5093968;28;20421;-69
2021/10/31 01:58:41;;;;;;;0.40;0.20;;;12.60;99.90;;;;;;5093037;28;20389;-70
2021/10/31 02:01:08;;;;;;;0.40;0.20;;;12.70;99.90;;;;;;5093988;28;20386;-69
2021/10/31 02:03:38;;;;;;;0.40;0.30;;;12.70;99.90;;;;;;5092967;28;20458;-70
2021/10/31 02:06:05;;;;;;;0.40;0.20;;;12.70;99.90;;;;;;5093328;28;20447;-69
2021/10/31 02:08:34;;;;;;;0.40;0.20;;;12.70;99.90;;;;;;5093416;28;20438;-70
2021/10/31 02:11:02;;;;;;;0.40;0.30;;;12.70;99.90;;;;;;5093374;28;20406;-69
2021/10/31 02:13:30;;;;;;;0.40;0.20;;;12.70;99.90;;;;;;5093491;28;20396;-69
2021/10/31 02:15:57;;;;;;;0.70;0.50;;;12.70;99.90;;;;;;5092914;28;20401;-69
2021/10/31 02:18:26;;;;;;;0.40;0.30;;;12.60;99.90;;;;;;5093253;28;20393;-69
2021/10/31 02:20:56;;;;;;;0.40;0.22;;;12.60;99.90;;;;;;5092702;28;20374;-69
2021/10/31 02:23:22;;;;;;;0.40;0.20;;;12.60;99.90;;;;;;5093193;28;20371;-70
2021/10/31 02:25:48;;;;;;;0.40;0.30;;;12.60;99.90;;;;;;5092553;28;20382;-70
2021/10/31 02:28:14;;;;;;;0.50;0.50;;;12.60;99.90;;;;;;5092977;28;20382;-70
2021/10/31 02:30:39;;;;;;;0.40;0.20;;;12.60;99.90;;;;;;5092353;28;20455;-70
2021/10/31 02:33:05;;;;;;;0.40;0.20;;;12.60;99.90;;;;;;5092967;28;20435;-69
2021/10/31 02:35:31;;;;;;;0.40;0.20;;;12.70;99.90;;;;;;5092701;28;20386;-69
2021/10/31 02:37:57;;;;;;;0.40;0.30;;;12.70;99.90;;;;;;5092268;28;20797;-69
2021/10/31 02:40:23;;;;;;;0.40;0.20;;;12.70;99.90;;;;;;5092604;28;20405;-69
2021/10/31 02:42:50;;;;;;;0.40;0.40;;;12.70;99.90;;;;;;5092277;28;20382;-69
2021/10/31 02:45:16;;;;;;;0.40;0.30;;;12.70;99.90;;;;;;5092505;28;20916;-69
2021/10/31 02:47:55;;;;;;;0.40;0.30;;;12.70;99.90;;;;;;5092067;28;20390;-70
2021/10/31 02:50:31;;;;;;;0.40;0.20;;;12.70;99.90;;;;;;5092561;28;20504;-69
2021/10/31 02:53:02;;;;;;;0.40;0.30;;;12.70;99.90;;;;;;5092091;28;20402;-70
2021/10/31 02:55:28;;;;;;;0.40;0.20;;;12.70;99.90;;;;;;5092614;28;20374;-69
2021/10/31 02:58:20;;;;;;;0.40;0.30;;;12.80;99.90;;;;;;5092198;28;20763;-70
2021/10/31 03:00:47;;;;;;;0.40;0.30;;;12.80;99.90;;;;;;5091736;28;20889;-70
2021/10/31 03:03:13;;;;;;;0.40;0.20;;;12.80;99.90;;;;;;5092421;28;20375;-69
2021/10/31 03:05:39;;;;;;;0.40;0.20;;;12.80;99.90;;;;;;5091758;28;20945;-70
2021/10/31 03:08:06;;;;;;;0.40;0.20;;;12.80;99.90;;;;;;5092316;28;20371;-70
2021/10/31 03:10:32;;;;;;;0.40;0.20;;;12.80;99.90;;;;;;5090777;28;20766;-70
2021/10/31 03:12:57;;;;;;;0.40;0.30;;;12.80;99.90;;;;;;5091170;28;20405;-70
2021/10/31 03:15:24;;;;;;;0.40;0.20;;;12.80;99.90;;;;;;5091013;28;20846;-69
2021/10/31 03:17:50;;;;;;;0.50;0.40;;;12.80;99.90;;;;;;5091531;28;20381;-70
2021/10/31 03:20:16;;;;;;;0.40;0.20;;;12.80;99.90;;;;;;5091975;28;20382;-70
2021/10/31 03:22:42;;;;;;;0.40;0.30;;;12.80;99.90;;;;;;5091377;28;20378;-70
2021/10/31 03:25:08;;;;;;;0.40;0.20;;;12.90;99.90;;;;;;5091922;28;20961;-69
2021/10/31 03:27:34;;;;;;;0.40;0.30;;;12.80;99.90;;;;;;5092014;28;20712;-69
2021/10/31 03:29:59;;;;;;;0.40;0.20;;;12.80;99.90;;;;;;5090847;28;20782;-69
2021/10/31 03:32:25;;;;;;;0.40;0.40;;;12.80;99.90;;;;;;5092209;28;20378;-70
2021/10/31 03:34:51;;;;;;;0.60;0.60;;;12.80;99.90;;;;;;5091197;28;20386;-69
2021/10/31 03:37:17;;;;;;;0.40;0.20;;;12.90;99.90;;;;;;5091754;28;20393;-69
2021/10/31 03:39:42;;;;;;;0.40;0.30;;;12.90;99.90;;;;;;5091069;28;20455;-70
2021/10/31 03:42:08;;;;;;;0.40;0.20;;;12.80;99.90;;;;;;5091826;28;20855;-70
2021/10/31 03:44:47;;;;;;;0.40;0.30;;;12.90;99.90;;;;;;5091638;28;20889;-69
2021/10/31 03:47:13;;;;;;;0.40;0.30;;;12.90;99.90;;;;;;5091620;28;20851;-70
2021/10/31 03:49:38;;;;;;;0.40;0.30;;;12.90;99.90;;;;;;5091095;28;20374;-70
2021/10/31 03:52:05;;;;;;;0.40;0.20;;;12.90;99.90;;;;;;5091378;28;20440;-69
2021/10/31 03:54:30;;;;;;;0.40;0.30;;;13.00;99.90;;;;;;5091182;28;20374;-70
2021/10/31 03:56:56;;;;;;;0.40;0.30;;;12.90;99.90;;;;;;5090948;28;20503;-69
2021/10/31 03:59:21;;;;;;;0.40;0.20;;;12.90;99.90;;;;;;5091771;28;20462;-69
2021/10/31 04:01:47;;;;;;;0.40;0.30;;;12.90;99.90;;;;;;5091161;28;20467;-69
2021/10/31 04:04:13;;;;;;;0.40;0.30;;;12.90;99.90;;;;;;5091376;28;20378;-69
2021/10/31 04:06:39;;;;;;;0.40;0.20;;;13.00;99.90;;;;;;5091222;28;20389;-69
2021/10/31 04:09:04;;;;;;;0.40;0.20;;;13.00;99.90;;;;;;5091258;28;20374;-70
2021/10/31 04:11:30;;;;;;;0.40;0.20;;;12.80;99.90;;;;;;5091240;28;20410;-69
2021/10/31 04:13:55;;;;;;;0.40;0.30;;;12.90;99.90;;;;;;5090364;28;20410;-70
2021/10/31 04:16:21;;;;;;;0.40;0.20;;;12.90;99.90;;;;;;5091081;28;20385;-69
2021/10/31 04:18:47;;;;;;;0.40;0.30;;;13.00;99.90;;;;;;5090640;28;20385;-70
2021/10/31 04:21:13;;;;;;;0.40;0.20;;;13.00;99.90;;;;;;5091089;28;20734;-69
2021/10/31 04:23:38;;;;;;;0.40;0.30;;;12.90;99.90;;;;;;5090131;28;20384;-69
2021/10/31 04:26:04;;;;;;;0.40;0.20;;;12.90;99.90;;;;;;5090064;28;20370;-70
2021/10/31 04:28:30;;;;;;;0.40;0.30;;;12.90;99.90;;;;;;5091001;28;20374;-69
2021/10/31 04:30:56;;;;;;;0.40;0.20;;;12.90;99.90;;;;;;5090310;28;20459;-69
2021/10/31 04:33:21;;;;;;;0.40;0.27;;;12.90;99.90;;;;;;5091017;28;20386;-69
2021/10/31 04:35:47;;;;;;;0.40;0.20;;;13.00;99.90;;;;;;5090288;28;20475;-70
2021/10/31 04:38:18;;;;;;;0.40;0.20;;;13.00;99.90;;;;;;5090930;28;20435;-69
2021/10/31 04:40:43;;;;;;;0.40;0.20;;;13.00;99.90;;;;;;5088976;28;20858;-70
2021/10/31 04:43:12;;;;;;;0.40;0.20;;;13.00;99.90;;;;;;5090968;28;20382;-70
2021/10/31 04:45:43;;;;;;;0.40;0.20;;;13.00;99.90;;;;;;5089546;28;20871;-69
2021/10/31 04:48:10;;;;;;;0.40;0.20;;;13.00;99.90;;;;;;5090748;28;20886;-69
2021/10/31 04:50:36;;;;;;;0.40;0.20;;;13.00;99.90;;;;;;5090711;28;20429;-69
2021/10/31 04:53:04;;;;;;;3.30;0.60;;;13.00;99.90;;;;;;5090187;28;20406;-70
2021/10/31 04:55:31;;;;;;;0.40;0.20;;;13.00;99.90;;;;;;5090653;28;20377;-70
2021/10/31 04:57:57;;;;;;;0.40;0.38;;;13.00;99.90;;;;;;5090274;28;20385;-70
2021/10/31 05:00:23;;;;;;;0.40;0.30;;;13.00;99.90;;;;;;5090652;28;20862;-70
2021/10/31 05:02:51;;;;;;;0.40;0.30;;;13.00;99.90;;;;;;5090574;28;20435;-70
2021/10/31 05:05:17;;;;;;;0.40;0.30;;;13.00;99.90;;;;;;5090721;28;20489;-70
2021/10/31 05:07:43;;;;;;;0.40;0.20;;;12.90;99.90;;;;;;5090985;28;20386;-70
2021/10/31 05:10:09;;;;;;;0.40;0.20;;;13.00;99.90;;;;;;5090685;28;20402;-70
2021/10/31 05:12:34;;;;;;;0.40;0.20;;;12.90;99.90;;;;;;5090856;28;20439;-69
2021/10/31 05:15:00;;;;;;;0.40;0.30;;;12.80;99.90;;;;;;5090119;28;20389;-69
2021/10/31 05:17:26;;;;;;;0.40;0.20;;;12.80;99.90;;;;;;5090884;28;20374;-70
2021/10/31 05:19:52;;;;;;;0.40;0.30;;;12.80;99.90;;;;;;5090044;28;20378;-70
2021/10/31 05:22:17;;;;;;;0.40;0.20;;;12.70;99.90;;;;;;5090818;28;20415;-70
2021/10/31 05:24:43;;;;;;;0.40;0.20;;;12.70;99.90;;;;;;5090961;28;20431;-70
2021/10/31 05:27:09;;;;;;;0.40;0.20;;;12.70;99.90;;;;;;5090756;28;20431;-70
2021/10/31 05:29:34;;;;;;;0.40;0.20;;;12.70;99.90;;;;;;5090793;28;20383;-70
2021/10/31 05:32:00;;;;;;;0.40;0.20;;;12.60;99.90;;;;;;5090023;28;20489;-70
2021/10/31 05:34:25;;;;;;;0.40;0.30;;;12.60;99.90;;;;;;5090338;28;20943;-70
2021/10/31 05:36:51;;;;;;;0.40;0.20;;;12.50;99.90;;;;;;5094059;28;20416;-70
2021/10/31 05:39:17;;;;;;;0.40;0.20;;;12.50;99.90;;;;;;5094337;28;20385;-70
2021/10/31 05:41:43;;;;;;;0.40;0.27;;;12.40;99.90;;;;;;5094069;28;20411;-70
2021/10/31 05:44:08;;;;;;;0.40;0.20;;;12.50;99.90;;;;;;5093713;28;20382;-69
2021/10/31 05:46:34;;;;;;;0.40;0.20;;;12.40;99.90;;;;;;5094196;28;20377;-69
2021/10/31 05:49:01;;;;;;;0.40;0.30;;;12.40;99.90;;;;;;5093732;28;20373;-70
2021/10/31 05:51:29;;;;;;;0.40;0.30;;;12.40;99.90;;;;;;5093683;28;20410;-70
2021/10/31 05:53:55;;;;;;;0.40;0.20;;;12.40;99.90;;;;;;5093858;28;20378;-69
2021/10/31 05:56:21;;;;;;;0.40;0.20;;;12.40;99.90;;;;;;5094188;28;20900;-69
2021/10/31 05:58:47;;;;;;;0.40;0.30;;;12.30;99.90;;;;;;5093214;28;20435;-70
2021/10/31 06:01:12;;;;;;;0.40;0.30;;;12.30;99.90;;;;;;5093556;28;20439;-69
2021/10/31 06:03:38;;;;;;;0.40;0.20;;;12.20;99.90;;;;;;5094071;28;20445;-69
2021/10/31 06:06:04;;;;;;;0.40;0.20;;;12.20;99.90;;;;;;5093458;28;20398;-69
2021/10/31 06:08:29;;;;;;;0.40;0.20;;;12.20;99.90;;;;;;5093800;28;20378;-69
2021/10/31 06:10:55;;;;;;;0.40;0.20;;;12.20;99.90;;;;;;5093155;28;20929;-69
2021/10/31 06:13:21;;;;;;;0.40;0.30;;;12.20;99.90;;;;;;5093740;28;20715;-69
2021/10/31 06:15:50;;;;;;;0.40;0.30;;;12.10;99.90;;;;;;5093453;28;20447;-70
2021/10/31 06:18:17;;;;;;;0.40;0.30;;;12.10;99.90;;;;;;5093720;28;20462;-69
2021/10/31 06:20:43;;;;;;;0.40;0.20;;;12.10;99.90;;;;;;5093673;28;20390;-69
2021/10/31 06:23:08;;;;;;;0.40;0.30;;;12.10;99.90;;;;;;5093222;28;20385;-69
2021/10/31 06:25:34;;;;;;;0.40;0.30;;;12.10;99.90;;;;;;5092254;28;20374;-70
2021/10/31 06:27:59;;;;;;;0.40;0.30;;;12.10;99.90;;;;;;5092542;28;20389;-70
2021/10/31 06:30:25;;;;;;;0.40;0.22;;;12.10;99.90;;;;;;5093035;28;20402;-70
2021/10/31 06:32:51;;;;;;;0.40;0.30;;;12.10;99.90;;;;;;5091945;28;20386;-71
2021/10/31 06:35:17;;;;;;;0.40;0.20;;;12.00;99.90;;;;;;5093181;28;20406;-70
2021/10/31 06:37:42;;;;;;;0.40;0.30;;;12.10;99.90;;;;;;5092388;28;20378;-71
2021/10/31 06:40:09;;;;;;;0.40;0.20;;;12.00;99.90;;;;;;5079158;28;20920;-69
2021/10/31 06:42:35;;;;;;;0.40;0.30;;;12.00;99.90;;;;;;5083185;28;20390;-70
2021/10/31 06:45:00;;;;;;;0.40;0.30;;;12.00;99.90;;;;;;5074936;28;20449;-70
2021/10/31 06:47:26;;;;;;;0.40;0.20;;;11.90;99.90;;;;;;5079569;28;20469;-70
2021/10/31 06:49:52;;;;;;;0.40;0.20;;;11.90;99.90;;;;;;5079374;28;20384;-71
2021/10/31 06:52:18;;;;;;;0.40;0.20;;;11.90;99.90;;;;;;5085929;28;20440;-70
2021/10/31 06:54:44;;;;;;;0.40;0.20;;;12.00;99.90;;;;;;5081793;28;20378;-68
2021/10/31 06:57:10;;;;;;;0.40;0.30;;;11.90;99.90;;;;;;5080680;28;20392;-71
2021/10/31 06:59:56;;;;;;;0.40;0.28;;;12.00;99.90;;;;;;5084812;28;20382;-70
2021/10/31 07:02:21;;;;;;;0.40;0.30;;;12.00;99.90;;;;;;5080623;28;20400;-70
2021/10/31 07:04:47;;;;;;;0.40;0.20;;;12.00;99.90;;;;;;5081801;28;20835;-69
2021/10/31 07:07:14;;;;;;;0.40;0.20;;;12.00;99.90;;;;;;5081433;28;20837;-70
2021/10/31 07:09:39;;;;;;;0.40;0.30;;;12.00;99.90;;;;;;5083979;28;20914;-69
2021/10/31 07:12:05;;;;;;;0.40;0.20;;;12.00;99.90;;;;;;5079981;28;20407;-70
2021/10/31 07:14:31;;;;;;;0.40;0.20;;;12.00;99.90;;;;;;5081778;28;20372;-71
2021/10/31 07:16:57;;;;;;;0.40;0.20;;;12.00;99.90;;;;;;5081579;28;20407;-71
2021/10/31 07:19:22;;;;;;;0.40;0.20;;;12.00;99.90;;;;;;5083118;28;20844;-70
2021/10/31 07:21:48;;;;;;;0.40;0.20;;;12.00;99.90;;;;;;5083345;28;20395;-70
2021/10/31 07:24:14;;;;;;;0.40;0.20;;;12.00;99.90;;;;;;5081902;28;20751;-70
2021/10/31 07:26:39;;;;;;;0.40;0.30;;;11.90;99.90;;;;;;5081289;28;20417;-70
2021/10/31 07:29:07;;;;;;;0.40;0.20;;;12.00;99.90;;;;;;5084746;28;20389;-70
2021/10/31 07:31:35;;;;;;;1.10;1.00;;;12.00;99.90;;;;;;5091873;28;20406;-70
2021/10/31 07:34:01;;;;;;;0.60;0.50;;;11.90;99.90;;;;;;5073119;28;20375;-69
2021/10/31 07:36:27;;;;;;;0.40;0.30;;;11.90;99.90;;;;;;5071876;28;20495;-70
2021/10/31 07:38:53;;;;;;;0.40;0.20;;;12.00;99.90;;;;;;5070889;28;20408;-71
2021/10/31 07:41:18;;;;;;;0.40;0.20;;;11.90;99.90;;;;;;5071973;28;20470;-70
2021/10/31 07:43:44;;;;;;;0.40;0.30;;;12.00;99.90;;;;;;5071482;28;20435;-70
2021/10/31 07:46:10;;;;;;;0.40;0.30;;;12.00;99.90;;;;;;5069863;28;20471;-70
2021/10/31 07:48:36;;;;;;;0.40;0.20;;;12.10;99.90;;;;;;5088924;28;20374;-70
2021/10/31 07:51:02;;;;;;;0.40;0.20;;;12.10;99.90;;;;;;5091345;28;20410;-71
2021/10/31 07:53:28;;;;;;;0.40;0.20;;;12.10;99.90;;;;;;5092073;28;20398;-71
2021/10/31 07:55:54;;;;;;;0.50;0.40;;;12.10;99.90;;;;;;5091360;28;20381;-72
2021/10/31 07:58:25;;;;;;;0.40;0.20;;;12.20;99.90;;;;;;5091645;28;20420;-71
2021/10/31 08:00:51;;;;;;;0.40;0.20;;;12.10;99.90;;;;;;5091892;28;20474;-71
2021/10/31 08:03:18;;;;;;;0.40;0.40;;;12.20;99.90;;;;;;5090881;28;20730;-71
2021/10/31 08:05:44;;;;;;;0.40;0.20;;;12.20;99.90;;;;;;5091580;28;20397;-70
2021/10/31 08:08:10;;;;;;;0.40;0.20;;;12.20;99.90;;;;;;5090915;28;20428;-71
2021/10/31 08:10:36;;;;;;;0.40;0.20;;;12.20;99.90;;;;;;5091411;28;20497;-71
2021/10/31 08:13:02;;;;;;;0.40;0.40;;;12.20;99.90;;;;;;5090905;28;20472;-71
2021/10/31 08:15:28;;;;;;;0.40;0.20;;;12.30;99.90;;;;;;5091631;28;20468;-71
2021/10/31 08:17:54;;;;;;;0.40;0.20;;;12.40;99.90;;;;;;5091026;28;20992;-71
2021/10/31 08:20:20;;;;;;;0.80;0.50;;;12.50;99.90;;;;;;5091127;28;20378;-71
2021/10/31 08:22:46;;;;;;;0.40;0.30;;;12.60;99.90;;;;;;5091353;28;20381;-70
2021/10/31 08:25:12;;;;;;;0.40;0.20;;;12.80;99.90;;;;;;5090547;28;20382;-71
2021/10/31 08:27:38;;;;;;;0.40;0.20;;;12.80;99.90;;;;;;5091198;28;20873;-71
2021/10/31 08:30:05;;;;;;;0.40;0.30;;;12.90;99.90;;;;;;5090572;28;20374;-69
2021/10/31 08:32:43;;;;;;;0.40;0.30;;;13.10;99.90;;;;;;5091218;28;20401;-70
2021/10/31 08:35:09;;;;;;;0.50;0.50;;;13.10;99.90;;;;;;5090638;28;20394;-70
2021/10/31 08:37:35;;;;;;;0.60;0.40;;;13.20;99.90;;;;;;5091194;28;20795;-70
2021/10/31 08:40:00;;;;;;;0.50;0.50;;;13.20;99.90;;;;;;5090573;28;20386;-70
2021/10/31 08:42:27;;;;;;;2.60;1.10;;;13.40;99.90;;;;;;5091224;28;20378;-70
2021/10/31 08:44:53;;;;;;;0.40;0.20;;;13.40;99.90;;;;;;5085923;28;20388;-71
2021/10/31 08:47:19;;;;;;;0.40;0.20;;;13.50;99.90;;;;;;5090208;28;20936;-71
2021/10/31 08:49:45;;;;;;;2.40;0.50;;;13.60;99.90;;;;;;5071334;28;20390;-70
2021/10/31 08:52:10;;;;;;;0.40;0.20;;;13.70;99.90;;;;;;5085174;28;20433;-70
2021/10/31 08:54:37;;;;;;;1.30;1.00;;;13.80;99.90;;;;;;5091076;28;20378;-72
2021/10/31 08:57:04;;;;;;;0.40;0.38;;;13.80;99.90;;;;;;5084364;28;20470;-72
2021/10/31 08:59:31;;;;;;;0.40;0.30;;;13.90;99.90;;;;;;5070724;28;20437;-71
2021/10/31 09:01:57;;;;;;;0.40;0.30;;;14.00;99.90;;;;;;5070852;28;20840;-70
2021/10/31 09:04:23;;;;;;;0.40;0.30;;;14.00;99.90;;;;;;5070712;28;20403;-70
2021/10/31 09:06:50;;;;;;;0.40;0.30;;;14.20;99.90;;;;;;5075904;28;20443;-70
2021/10/31 09:09:19;;;;;;;0.40;0.20;;;14.40;99.90;;;;;;5070635;28;20430;-70
2021/10/31 09:11:46;;;;;;;0.40;0.20;;;14.50;99.90;;;;;;5077831;28;20405;-71
2021/10/31 09:14:12;;;;;;;0.40;0.30;;;14.60;99.90;;;;;;5085292;28;20398;-71
2021/10/31 09:16:38;;;;;;;0.40;0.28;;;14.70;99.90;;;;;;5083052;28;20386;-71
2021/10/31 09:19:04;;;;;;;0.40;0.30;;;14.70;99.90;;;;;;5080167;28;20722;-71
2021/10/31 09:21:29;;;;;;;0.40;0.35;;;14.80;99.90;;;;;;5079981;28;20394;-71
2021/10/31 09:23:55;;;;;;;0.40;0.30;;;14.90;99.90;;;;;;5080129;28;21020;-71
2021/10/31 09:26:20;;;;;;;0.40;0.20;;;15.10;99.90;;;;;;5080898;28;20501;-71
2021/10/31 09:28:47;;;;;;;0.40;0.30;;;15.30;99.90;;;;;;5081392;28;20416;-70
2021/10/31 09:31:14;;;;;;;0.40;0.30;;;15.50;99.90;;;;;;5079959;28;20432;-70
2021/10/31 09:33:41;;;;;;;0.40;0.20;;;15.60;99.90;;;;;;5080753;28;20386;-70
2021/10/31 09:36:07;;;;;;;0.40;0.30;;;15.70;99.90;;;;;;5080301;28;20489;-70
2021/10/31 09:38:33;;;;;;;0.40;0.30;;;15.80;99.90;;;;;;5081151;28;20392;-71
2021/10/31 09:41:00;;;;;;;0.40;0.30;;;15.70;99.90;;;;;;5080756;28;20386;-71
2021/10/31 09:43:29;;;;;;;0.40;0.30;;;15.80;99.90;;;;;;5079976;28;20382;-71
2021/10/31 09:46:01;;;;;;;0.40;0.20;;;15.90;99.90;;;;;;5080833;28;20382;-71
2021/10/31 09:48:31;;;;;;;0.40;0.20;;;16.10;99.90;;;;;;5080074;28;20901;-71
2021/10/31 09:50:57;;;;;;;0.40;0.20;;;16.20;99.90;;;;;;5080095;28;20467;-72
2021/10/31 09:53:25;;;;;;;0.40;0.20;;;16.20;99.90;;;;;;5077666;28;20410;-71
2021/10/31 09:55:52;;;;;;;0.40;0.30;;;16.50;99.90;;;;;;5080946;28;20405;-71
2021/10/31 09:58:24;;;;;;;0.40;0.30;;;16.50;99.90;;;;;;5080067;28;20830;-72
2021/10/31 10:00:54;;;;;;;0.40;0.25;;;16.50;99.90;;;;;;5080801;28;20409;-72
2021/10/31 10:03:35;;;;;;;0.40;0.20;;;16.50;99.90;;;;;;5076353;28;20383;-71
2021/10/31 10:06:21;;;;;;;0.40;0.20;;;16.60;99.90;;;;;;5080666;28;20870;-72
2021/10/31 10:09:05;;;;;;;0.40;0.30;;;16.80;99.90;;;;;;5080553;28;21055;-71
2021/10/31 10:11:40;;;;;;;0.40;0.30;;;17.10;99.90;;;;;;5077735;28;20418;-71
2021/10/31 10:14:09;;;;;;;0.40;0.20;;;17.00;99.90;;;;;;5079207;28;20382;-71
2021/10/31 10:16:35;;;;;;;0.40;0.30;;;17.30;99.90;;;;;;5080497;28;20394;-72
2021/10/31 10:19:14;;;;;;;0.40;0.20;;;17.50;99.90;;;;;;5080682;28;20867;-71
2021/10/31 10:21:40;;;;;;;0.50;0.50;;;17.60;99.90;;;;;;5075253;28;20477;-71
2021/10/31 10:24:11;;;;;;;0.40;0.30;;;17.80;99.90;;;;;;5079160;28;20390;-71
2021/10/31 10:26:43;;;;;;;0.40;0.20;;;17.80;99.90;;;;;;5080111;28;20444;-69
2021/10/31 10:29:09;;;;;;;0.40;0.20;;;17.70;99.90;;;;;;5078893;28;20746;-70
2021/10/31 10:31:35;;;;;;;0.40;0.30;;;17.70;99.90;;;;;;5076662;28;20410;-71
2021/10/31 10:34:01;;;;;;;0.40;0.20;;;17.80;99.90;;;;;;5079281;28;20382;-71
2021/10/31 10:36:27;;;;;;;0.40;0.30;;;17.60;99.90;;;;;;5079571;28;20509;-72
2021/10/31 10:39:06;;;;;;;0.40;0.30;;;17.60;99.90;;;;;;5079533;28;20500;-71
2021/10/31 10:41:48;;;;;;;0.40;0.20;;;17.50;99.90;;;;;;5076624;28;20390;-72
2021/10/31 10:44:35;;;;;;;0.40;0.30;;;17.70;99.90;;;;;;5078604;28;20405;-71
2021/10/31 10:47:17;;;;;;;0.40;0.20;;;17.90;99.90;;;;;;5079402;28;20440;-71
2021/10/31 10:49:44;;;;;;;0.40;0.20;;;18.00;99.90;;;;;;5080318;28;20390;-70
2021/10/31 10:52:22;;;;;;;0.40;0.20;;;18.20;99.90;;;;;;5074704;28;20972;-71
2021/10/31 10:54:49;;;;;;;0.40;0.30;;;18.50;99.90;;;;;;5078118;28;20402;-70
2021/10/31 10:57:16;;;;;;;1.00;0.60;;;18.80;99.90;;;;;;5078880;28;20435;-71
2021/10/31 10:59:42;;;;;;;0.40;0.20;;;19.00;99.90;;;;;;5079029;28;20767;-70
2021/10/31 11:02:18;;;;;;;0.40;0.20;;;19.40;99.90;;;;;;5075378;28;20826;-71
2021/10/31 11:04:49;;;;;;;0.40;0.30;;;19.90;99.90;;;;;;5078936;28;20429;-72
2021/10/31 11:07:16;;;;;;;0.40;0.20;;;20.20;99.90;;;;;;5078950;28;20386;-71
2021/10/31 11:09:44;;;;;;;0.40;0.30;;;20.30;99.90;;;;;;5079281;28;20965;-71
2021/10/31 11:12:30;;;;;;;0.40;0.20;;;20.50;99.90;;;;;;5074471;28;20414;-70
2021/10/31 11:15:00;;;;;;;0.40;0.20;;;20.70;99.90;;;;;;5078524;28;20403;-70
2021/10/31 11:17:27;;;;;;;0.40;0.30;;;20.80;99.90;;;;;;5078885;28;20392;-70
2021/10/31 11:19:53;;;;;;;0.40;0.20;;;20.50;99.90;;;;;;5077051;28;20523;-71
2021/10/31 11:22:21;;;;;;;0.40;0.30;;;21.50;99.90;;;;;;5074519;28;20386;-70
2021/10/31 11:24:48;;;;;;;0.40;0.30;;;21.40;99.90;;;;;;5079008;28;20476;-70
2021/10/31 11:27:19;;;;;;;0.40;0.30;;;21.60;99.90;;;;;;5078156;28;20481;-70
2021/10/31 11:29:46;;;;;;;0.40;0.30;;;22.00;99.90;;;;;;5078250;28;20400;-70
2021/10/31 11:32:14;;;;;;;0.40;0.30;;;21.50;99.90;;;;;;5074446;28;20521;-70
2021/10/31 11:34:48;;;;;;;0.40;0.20;;;21.50;99.70;;;;;;5078676;28;20410;-72
2021/10/31 11:37:20;;;;;;;0.40;0.20;;;21.50;99.90;;;;;;5078366;28;20402;-70
2021/10/31 11:39:48;;;;;;;0.40;0.30;;;22.00;99.40;;;;;;5077077;28;20893;-70
2021/10/31 11:42:16;;;;;;;0.40;0.30;;;21.80;98.50;;;;;;5074377;28;20417;-70
2021/10/31 11:45:03;;;;;;;0.40;0.30;;;21.00;98.20;;;;;;5078600;28;20381;-70
2021/10/31 11:47:32;;;;;;;0.40;0.20;;;22.40;97.90;;;;;;5076160;28;20439;-70
2021/10/31 11:50:21;;;;;;;0.40;0.20;;;21.80;99.00;;;;;;5078966;28;20516;-71
2021/10/31 11:52:51;;;;;;;0.40;0.28;;;22.80;96.50;;;;;;5074442;28;20420;-70
2021/10/31 11:55:29;;;;;;;0.40;0.20;;;23.20;96.50;;;;;;5078535;28;20390;-70
2021/10/31 11:57:59;;;;;;;0.40;0.20;;;22.70;95.20;;;;;;5078193;28;20401;-70
2021/10/31 12:00:26;;;;;;;0.40;0.30;;;22.00;96.60;;;;;;5075109;28;20524;-71
2021/10/31 12:02:55;;;;;;;0.40;0.30;;;22.50;98.10;;;;;;5074592;28;20382;-70
2021/10/31 12:05:39;;;;;;;0.40;0.20;;;22.00;96.10;;;;;;5077305;28;20401;-70
2021/10/31 12:08:06;;;;;;;0.40;0.30;;;22.50;96.40;;;;;;5078467;28;20479;-69
2021/10/31 12:10:35;;;;;;;0.40;0.30;;;22.80;94.50;;;;;;5077479;28;20457;-69
2021/10/31 12:13:18;;;;;;;0.40;0.30;;;22.40;96.50;;;;;;5074293;28;20839;-69
2021/10/31 12:16:11;;;;;;;0.40;0.30;;;22.20;96.10;;;;;;5077830;28;20397;-69
2021/10/31 12:18:52;;;;;;;0.40;0.30;;;21.60;95.90;;;;;;5077962;28;20735;-70
2021/10/31 12:21:30;;;;;;;0.40;0.30;;;21.90;94.50;;;;;;5074316;28;21320;-70
2021/10/31 12:23:59;;;;;;;0.40;0.20;;;22.20;95.00;;;;;;5077478;28;20420;-70
2021/10/31 12:26:31;;;;;;;0.40;0.20;;;21.30;95.50;;;;;;5077543;28;20398;-71
2021/10/31 12:29:21;;;;;;;0.40;0.30;;;21.30;95.90;;;;;;5077636;28;20477;-71
2021/10/31 12:32:16;;;;;;;0.40;0.30;;;20.90;97.80;;;;;;5074474;28;20420;-71
2021/10/31 12:34:53;;;;;;;0.40;0.30;;;20.60;98.00;;;;;;5077742;28;20393;-71
2021/10/31 12:37:22;;;;;;;0.40;0.30;;;20.20;99.90;;;;;;5077684;28;20397;-71
2021/10/31 12:39:59;;;;;;;0.40;0.30;;;20.10;99.90;;;;;;5077271;28;20435;-70
2021/10/31 12:42:34;;;;;;;0.40;0.30;;;20.60;99.30;;;;;;5073935;28;20386;-71
2021/10/31 12:45:14;;;;;;;0.40;0.30;;;20.60;99.60;;;;;;5079852;28;20469;-70
2021/10/31 12:48:05;;;;;;;0.40;0.20;;;20.40;99.90;;;;;;5082002;28;21262;-71
2021/10/31 12:50:33;;;;;;;0.40;0.30;;;20.30;99.90;;;;;;5081013;28;20443;-70
2021/10/31 12:53:02;;;;;;;0.40;0.30;;;19.90;99.90;;;;;;5078486;28;20400;-70
2021/10/31 12:55:30;;;;;;;0.40;0.30;;;19.80;99.90;;;;;;5080781;28;20378;-71
2021/10/31 12:58:02;;;;;;;0.40;0.20;;;19.40;99.90;;;;;;5081781;28;20814;-71
2021/10/31 13:00:30;;;;;;;0.40;0.30;;;19.50;99.90;;;;;;5080979;28;20386;-71